WMT6876 LEMD-LATI
Flight info
| Callsign | WMT6876 |
|---|---|
| Flight time | 2h 28m |
| Altitude | 34000 |
| Route | PINAR DCT SEGRE DCT BRITO DCT PISUS DCT PONEN DCT SEROX DCT VILAR DCT KARES DCT BISES DCT BCN/N0450F330 DCT DIPES/N0450F340 N725 OSPOK/N0449F330 DCT NOLVI DCT ORKUM/N0448F340 DCT ELSAG DCT ALG DCT GARGA/N0449F350 DCT VAKSU DCT PETAK |
| Aircraft | A321/M-SDE3FGHIRWY/LB1 |
Departure
| Time | 2026-04-30 18:17 |
|---|---|
| Airport | Adolfo Suárez Madrid–Barajas Airport (LEMD) |
Arrival
| Time | 2026-04-30 20:46 |
|---|---|
| Airport | Tirana International Airport Mother Teresa (LATI) |
| Time | Latitude | Longitude | Altitude | Speed | Heading |
|---|---|---|---|---|---|
| 2026-04-30 17:39 | 40.46284 | -3.56906 | 1971 ft | 0 kts | 302° |
| 2026-04-30 17:58 | 40.46270 | -3.56871 | 1972 ft | 3 kts | 294° |
| 2026-04-30 17:59 | 40.46213 | -3.56846 | 1975 ft | 3 kts | 39° |
| 2026-04-30 18:00 | 40.46197 | -3.56863 | 1970 ft | 0 kts | 36° |
| 2026-04-30 18:02 | 40.46276 | -3.56797 | 1975 ft | 5 kts | 37° |
| 2026-04-30 18:03 | 40.46298 | -3.56548 | 1972 ft | 11 kts | 84° |
| 2026-04-30 18:04 | 40.46541 | -3.56485 | 1972 ft | 13 kts | 3° |
| 2026-04-30 18:05 | 40.46896 | -3.56456 | 1975 ft | 12 kts | 4° |
| 2026-04-30 18:06 | 40.47242 | -3.56602 | 1982 ft | 16 kts | 322° |
| 2026-04-30 18:07 | 40.47552 | -3.56920 | 1993 ft | 18 kts | 322° |
| 2026-04-30 18:08 | 40.47810 | -3.57180 | 2001 ft | 13 kts | 322° |
| 2026-04-30 18:09 | 40.48172 | -3.57550 | 1999 ft | 23 kts | 322° |
| 2026-04-30 18:10 | 40.48733 | -3.57923 | 1997 ft | 18 kts | 14° |
| 2026-04-30 18:11 | 40.48766 | -3.57151 | 1986 ft | 25 kts | 90° |
| 2026-04-30 18:11 | 40.48768 | -3.56397 | 1966 ft | 30 kts | 90° |
| 2026-04-30 18:12 | 40.48989 | -3.56139 | 1959 ft | 17 kts | 360° |
| 2026-04-30 18:13 | 40.49238 | -3.56141 | 1959 ft | 21 kts | 359° |
| 2026-04-30 18:13 | 40.49656 | -3.56143 | 1959 ft | 22 kts | 360° |
| 2026-04-30 18:14 | 40.49939 | -3.56068 | 1958 ft | 15 kts | 79° |
| 2026-04-30 18:15 | 40.50110 | -3.55921 | 1960 ft | 0 kts | 360° |
| 2026-04-30 18:15 | 40.50112 | -3.55921 | 1960 ft | 0 kts | 359° |
| 2026-04-30 18:16 | 40.50113 | -3.55921 | 1960 ft | 1 kts | 359° |
| 2026-04-30 18:16 | 40.50662 | -3.55926 | 1965 ft | 99 kts | 359° |
| 2026-04-30 18:17 | 40.51549 | -3.55932 | 1950 ft | 154 kts | 360° |
| 2026-04-30 18:17 | 40.52739 | -3.55942 | 2199 ft | 176 kts | 359° |
| 2026-04-30 18:17 | 40.55068 | -3.55582 | 3640 ft | 173 kts | 16° |
| 2026-04-30 18:18 | 40.56219 | -3.55118 | 4119 ft | 174 kts | 17° |
| 2026-04-30 18:18 | 40.57342 | -3.54501 | 4559 ft | 177 kts | 39° |
| 2026-04-30 18:18 | 40.58083 | -3.53234 | 4975 ft | 177 kts | 64° |
| 2026-04-30 18:18 | 40.58689 | -3.51791 | 5298 ft | 187 kts | 61° |
| 2026-04-30 18:19 | 40.59366 | -3.50224 | 5441 ft | 206 kts | 61° |
| 2026-04-30 18:19 | 40.60117 | -3.48500 | 5574 ft | 227 kts | 60° |
| 2026-04-30 18:19 | 40.60933 | -3.46631 | 5701 ft | 245 kts | 61° |
| 2026-04-30 18:19 | 40.61813 | -3.44608 | 5891 ft | 263 kts | 61° |
| 2026-04-30 18:20 | 40.62753 | -3.42447 | 6216 ft | 277 kts | 60° |
| 2026-04-30 18:20 | 40.63718 | -3.40226 | 6777 ft | 282 kts | 60° |
| 2026-04-30 18:20 | 40.64696 | -3.37970 | 7373 ft | 285 kts | 60° |
| 2026-04-30 18:20 | 40.65688 | -3.35684 | 7976 ft | 289 kts | 60° |
| 2026-04-30 18:21 | 40.66689 | -3.33375 | 8572 ft | 292 kts | 60° |
| 2026-04-30 18:21 | 40.67703 | -3.31029 | 9159 ft | 296 kts | 60° |
| 2026-04-30 18:21 | 40.68725 | -3.28658 | 9749 ft | 300 kts | 60° |
| 2026-04-30 18:21 | 40.69765 | -3.26235 | 10199 ft | 310 kts | 60° |
| 2026-04-30 18:22 | 40.70860 | -3.23685 | 10322 ft | 330 kts | 60° |
| 2026-04-30 18:22 | 40.73255 | -3.18129 | 10583 ft | 366 kts | 60° |
| 2026-04-30 18:22 | 40.74526 | -3.15179 | 10975 ft | 373 kts | 60° |
| 2026-04-30 18:23 | 40.75811 | -3.12186 | 11499 ft | 377 kts | 60° |
| 2026-04-30 18:23 | 40.77106 | -3.09156 | 12040 ft | 380 kts | 61° |
| 2026-04-30 18:23 | 40.78409 | -3.06105 | 12588 ft | 383 kts | 61° |
| 2026-04-30 18:23 | 40.79725 | -3.03028 | 13117 ft | 387 kts | 61° |
| 2026-04-30 18:24 | 40.82389 | -2.96792 | 14171 ft | 393 kts | 61° |
| 2026-04-30 18:24 | 40.83740 | -2.93626 | 14666 ft | 396 kts | 61° |
| 2026-04-30 18:24 | 40.85068 | -2.90508 | 15141 ft | 399 kts | 61° |
| 2026-04-30 18:25 | 40.86463 | -2.87230 | 15660 ft | 402 kts | 61° |
| 2026-04-30 18:25 | 40.89156 | -2.80894 | 16694 ft | 407 kts | 61° |
| 2026-04-30 18:25 | 40.90591 | -2.77502 | 17291 ft | 409 kts | 61° |
| 2026-04-30 18:26 | 40.93396 | -2.70876 | 18302 ft | 414 kts | 61° |
| 2026-04-30 18:26 | 40.94805 | -2.67542 | 18734 ft | 417 kts | 61° |
| 2026-04-30 18:26 | 40.96206 | -2.64224 | 19135 ft | 420 kts | 61° |
| 2026-04-30 18:27 | 40.98854 | -2.57252 | 19931 ft | 425 kts | 76° |
| 2026-04-30 18:27 | 40.99436 | -2.53459 | 20304 ft | 427 kts | 78° |
| 2026-04-30 18:28 | 41.00853 | -2.45723 | 21067 ft | 433 kts | 77° |
| 2026-04-30 18:28 | 41.01536 | -2.41833 | 21435 ft | 435 kts | 77° |
| 2026-04-30 18:28 | 41.02945 | -2.34042 | 22164 ft | 441 kts | 77° |
| 2026-04-30 18:29 | 41.03690 | -2.30090 | 22529 ft | 443 kts | 76° |
| 2026-04-30 18:29 | 41.05976 | -2.18107 | 23499 ft | 452 kts | 76° |
| 2026-04-30 18:30 | 41.07246 | -2.11362 | 23994 ft | 456 kts | 77° |
| 2026-04-30 18:30 | 41.09014 | -2.01912 | 24672 ft | 460 kts | 77° |
| 2026-04-30 18:31 | 41.09806 | -1.97638 | 24985 ft | 462 kts | 77° |
| 2026-04-30 18:31 | 41.11346 | -1.89336 | 25554 ft | 465 kts | 77° |
| 2026-04-30 18:32 | 41.12895 | -1.80971 | 26108 ft | 469 kts | 77° |
| 2026-04-30 18:32 | 41.13669 | -1.76778 | 26386 ft | 471 kts | 77° |
| 2026-04-30 18:32 | 41.15227 | -1.68289 | 26924 ft | 474 kts | 77° |
| 2026-04-30 18:33 | 41.16005 | -1.64032 | 27191 ft | 475 kts | 77° |
| 2026-04-30 18:33 | 41.17564 | -1.55475 | 27690 ft | 479 kts | 77° |
| 2026-04-30 18:33 | 41.18326 | -1.51266 | 27933 ft | 481 kts | 77° |
| 2026-04-30 18:34 | 41.19127 | -1.46829 | 28166 ft | 483 kts | 77° |
| 2026-04-30 18:34 | 41.20698 | -1.38116 | 28692 ft | 486 kts | 77° |
| 2026-04-30 18:34 | 41.21481 | -1.33762 | 29065 ft | 485 kts | 77° |
| 2026-04-30 18:35 | 41.22263 | -1.29406 | 29437 ft | 485 kts | 77° |
| 2026-04-30 18:35 | 41.23044 | -1.25056 | 29777 ft | 484 kts | 77° |
| 2026-04-30 18:35 | 41.23824 | -1.20700 | 30139 ft | 484 kts | 77° |
| 2026-04-30 18:36 | 41.25378 | -1.12022 | 30692 ft | 483 kts | 77° |
| 2026-04-30 18:36 | 41.26155 | -1.07669 | 30936 ft | 484 kts | 78° |
| 2026-04-30 18:36 | 41.27697 | -0.98975 | 31468 ft | 483 kts | 78° |
| 2026-04-30 18:37 | 41.28460 | -0.94634 | 31743 ft | 482 kts | 78° |
| 2026-04-30 18:37 | 41.29221 | -0.90295 | 32011 ft | 482 kts | 78° |
| 2026-04-30 18:37 | 41.29969 | -0.86008 | 32278 ft | 481 kts | 78° |
| 2026-04-30 18:37 | 41.30724 | -0.81682 | 32548 ft | 481 kts | 78° |
| 2026-04-30 18:38 | 41.31235 | -0.78754 | 32724 ft | 481 kts | 78° |
| 2026-04-30 18:38 | 41.32231 | -0.73017 | 33037 ft | 480 kts | 78° |
| 2026-04-30 18:38 | 41.32982 | -0.68697 | 33302 ft | 480 kts | 78° |
| 2026-04-30 18:38 | 41.33732 | -0.64373 | 33568 ft | 479 kts | 78° |
| 2026-04-30 18:39 | 41.34479 | -0.60051 | 33839 ft | 478 kts | 78° |
| 2026-04-30 18:39 | 41.35141 | -0.55742 | 34105 ft | 476 kts | 83° |
| 2026-04-30 18:39 | 41.35375 | -0.51338 | 34347 ft | 474 kts | 92° |
| 2026-04-30 18:39 | 41.35332 | -0.46965 | 34585 ft | 472 kts | 92° |
| 2026-04-30 18:40 | 41.35309 | -0.44204 | 34729 ft | 471 kts | 92° |
| 2026-04-30 18:40 | 41.35277 | -0.39718 | 34970 ft | 470 kts | 92° |
| 2026-04-30 18:40 | 41.35250 | -0.35357 | 35053 ft | 473 kts | 92° |
| 2026-04-30 18:40 | 41.35221 | -0.30984 | 34631 ft | 474 kts | 92° |
| 2026-04-30 18:41 | 41.35189 | -0.26601 | 34209 ft | 473 kts | 92° |
| 2026-04-30 18:41 | 41.35154 | -0.22204 | 34022 ft | 475 kts | 92° |
| 2026-04-30 18:41 | 41.35116 | -0.17935 | 34073 ft | 477 kts | 92° |
| 2026-04-30 18:42 | 41.35026 | -0.08958 | 34063 ft | 478 kts | 92° |
| 2026-04-30 18:42 | 41.34878 | 0.04309 | 34067 ft | 479 kts | 92° |
| 2026-04-30 18:45 | 41.34235 | 0.52980 | 34082 ft | 479 kts | 92° |
| 2026-04-30 18:46 | 41.34092 | 0.61849 | 34092 ft | 479 kts | 93° |
| 2026-04-30 18:46 | 41.33942 | 0.70705 | 34096 ft | 479 kts | 93° |
| 2026-04-30 18:47 | 41.33796 | 0.79558 | 34084 ft | 480 kts | 92° |
| 2026-04-30 18:47 | 41.33635 | 0.88451 | 34099 ft | 481 kts | 92° |
| 2026-04-30 18:48 | 41.33465 | 0.97351 | 34107 ft | 481 kts | 93° |
| 2026-04-30 18:48 | 41.33287 | 1.06256 | 34108 ft | 481 kts | 93° |
| 2026-04-30 18:49 | 41.33098 | 1.15145 | 34105 ft | 481 kts | 92° |
| 2026-04-30 18:49 | 41.32917 | 1.24058 | 34111 ft | 483 kts | 92° |
| 2026-04-30 18:50 | 41.32728 | 1.33001 | 34113 ft | 483 kts | 93° |
| 2026-04-30 18:50 | 41.32523 | 1.41930 | 34114 ft | 483 kts | 93° |
| 2026-04-30 18:51 | 41.32302 | 1.50860 | 34116 ft | 483 kts | 93° |
| 2026-04-30 18:51 | 41.32084 | 1.59818 | 34118 ft | 485 kts | 93° |
| 2026-04-30 18:52 | 41.31861 | 1.68791 | 34116 ft | 486 kts | 93° |
| 2026-04-30 18:52 | 41.31632 | 1.77765 | 34115 ft | 485 kts | 93° |
| 2026-04-30 18:53 | 41.31397 | 1.86733 | 34118 ft | 485 kts | 93° |
| 2026-04-30 18:53 | 41.31157 | 1.95659 | 34111 ft | 487 kts | 93° |
| 2026-04-30 18:54 | 41.30901 | 2.04650 | 34113 ft | 488 kts | 93° |
| 2026-04-30 18:54 | 41.30263 | 2.13603 | 34115 ft | 485 kts | 104° |
| 2026-04-30 18:55 | 41.28810 | 2.22370 | 34113 ft | 485 kts | 104° |
| 2026-04-30 18:55 | 41.26630 | 2.35522 | 34116 ft | 487 kts | 104° |
| 2026-04-30 18:56 | 41.24438 | 2.48722 | 34111 ft | 488 kts | 104° |
| 2026-04-30 18:57 | 41.22226 | 2.61902 | 34109 ft | 488 kts | 104° |
| 2026-04-30 18:57 | 41.20740 | 2.70696 | 34106 ft | 489 kts | 104° |
| 2026-04-30 18:58 | 41.18487 | 2.83919 | 34108 ft | 490 kts | 104° |
| 2026-04-30 18:59 | 41.16221 | 2.97155 | 34106 ft | 490 kts | 104° |
| 2026-04-30 19:00 | 41.13170 | 3.14798 | 34106 ft | 493 kts | 104° |
| 2026-04-30 19:01 | 41.10100 | 3.32412 | 34105 ft | 493 kts | 104° |
| 2026-04-30 19:02 | 41.07749 | 3.45819 | 34095 ft | 493 kts | 105° |
| 2026-04-30 19:03 | 41.04620 | 3.63416 | 34098 ft | 490 kts | 105° |
| 2026-04-30 19:04 | 41.01467 | 3.80982 | 34099 ft | 490 kts | 105° |
| 2026-04-30 19:05 | 40.98296 | 3.98584 | 34097 ft | 492 kts | 105° |
| 2026-04-30 19:06 | 40.95085 | 4.16112 | 34102 ft | 492 kts | 105° |
| 2026-04-30 19:06 | 40.92644 | 4.29320 | 34100 ft | 494 kts | 105° |
| 2026-04-30 19:07 | 40.90194 | 4.42558 | 34101 ft | 494 kts | 105° |
| 2026-04-30 19:08 | 40.86909 | 4.60197 | 34096 ft | 495 kts | 105° |
| 2026-04-30 19:09 | 40.85060 | 4.73639 | 34094 ft | 497 kts | 97° |
| 2026-04-30 19:09 | 40.84225 | 4.82712 | 34095 ft | 498 kts | 98° |
| 2026-04-30 19:10 | 40.82521 | 5.00825 | 34094 ft | 499 kts | 97° |
| 2026-04-30 19:11 | 40.81232 | 5.14515 | 34096 ft | 500 kts | 98° |
| 2026-04-30 19:12 | 40.80359 | 5.23618 | 34099 ft | 500 kts | 98° |
| 2026-04-30 19:12 | 40.79474 | 5.32714 | 34094 ft | 500 kts | 98° |
| 2026-04-30 19:13 | 40.77687 | 5.50884 | 34092 ft | 500 kts | 98° |
| 2026-04-30 19:14 | 40.76788 | 5.59976 | 34097 ft | 499 kts | 98° |
| 2026-04-30 19:14 | 40.75884 | 5.69028 | 34088 ft | 499 kts | 98° |
| 2026-04-30 19:15 | 40.74969 | 5.78058 | 34103 ft | 500 kts | 98° |
| 2026-04-30 19:15 | 40.73568 | 5.91781 | 34098 ft | 501 kts | 98° |
| 2026-04-30 19:16 | 40.72630 | 6.00882 | 34099 ft | 501 kts | 98° |
| 2026-04-30 19:17 | 40.71211 | 6.14530 | 34104 ft | 502 kts | 98° |
| 2026-04-30 19:17 | 40.69774 | 6.28203 | 34103 ft | 502 kts | 98° |
| 2026-04-30 19:18 | 40.68308 | 6.41877 | 34100 ft | 502 kts | 98° |
| 2026-04-30 19:19 | 40.67332 | 6.50995 | 34099 ft | 504 kts | 98° |
| 2026-04-30 19:19 | 40.65835 | 6.64751 | 34100 ft | 506 kts | 98° |
| 2026-04-30 19:20 | 40.64828 | 6.73915 | 34096 ft | 506 kts | 98° |
| 2026-04-30 19:21 | 40.63308 | 6.87612 | 34090 ft | 507 kts | 98° |
| 2026-04-30 19:22 | 40.61240 | 7.06060 | 34094 ft | 508 kts | 98° |
| 2026-04-30 19:23 | 40.58097 | 7.33553 | 34088 ft | 508 kts | 98° |
| 2026-04-30 19:24 | 40.56608 | 7.47339 | 34085 ft | 507 kts | 91° |
| 2026-04-30 19:25 | 40.58317 | 7.70322 | 34093 ft | 506 kts | 82° |
| 2026-04-30 19:26 | 40.59728 | 7.87175 | 34100 ft | 506 kts | 82° |
| 2026-04-30 19:27 | 40.60884 | 8.00990 | 34105 ft | 507 kts | 81° |
| 2026-04-30 19:28 | 40.62034 | 8.14836 | 34120 ft | 508 kts | 82° |
| 2026-04-30 19:29 | 40.64943 | 8.32891 | 34108 ft | 504 kts | 68° |
| 2026-04-30 19:30 | 40.69269 | 8.50500 | 34110 ft | 506 kts | 68° |
| 2026-04-30 19:31 | 40.73580 | 8.68160 | 34123 ft | 506 kts | 68° |
| 2026-04-30 19:31 | 40.76799 | 8.81422 | 34136 ft | 507 kts | 68° |
| 2026-04-30 19:32 | 40.78943 | 8.90294 | 34158 ft | 508 kts | 67° |
| 2026-04-30 19:32 | 40.81083 | 8.99181 | 34148 ft | 508 kts | 68° |
| 2026-04-30 19:33 | 40.83216 | 9.08083 | 34142 ft | 509 kts | 68° |
| 2026-04-30 19:33 | 40.85352 | 9.17008 | 34159 ft | 510 kts | 67° |
| 2026-04-30 19:34 | 40.87484 | 9.25937 | 34167 ft | 510 kts | 67° |
| 2026-04-30 19:35 | 40.90662 | 9.39372 | 34163 ft | 510 kts | 68° |
| 2026-04-30 19:35 | 40.92770 | 9.48323 | 34172 ft | 511 kts | 68° |
| 2026-04-30 19:36 | 40.94874 | 9.57303 | 34171 ft | 511 kts | 68° |
| 2026-04-30 19:36 | 40.98009 | 9.70772 | 34164 ft | 510 kts | 68° |
| 2026-04-30 19:37 | 41.00098 | 9.79740 | 34164 ft | 510 kts | 68° |
| 2026-04-30 19:37 | 41.02171 | 9.88661 | 34162 ft | 510 kts | 68° |
| 2026-04-30 19:38 | 41.04250 | 9.97642 | 34161 ft | 510 kts | 68° |
| 2026-04-30 19:38 | 41.06315 | 10.06649 | 34164 ft | 511 kts | 68° |
| 2026-04-30 19:39 | 41.08372 | 10.15651 | 34163 ft | 511 kts | 68° |
| 2026-04-30 19:39 | 41.10434 | 10.24724 | 34156 ft | 511 kts | 68° |
| 2026-04-30 19:40 | 41.12461 | 10.33654 | 34162 ft | 507 kts | 68° |
| 2026-04-30 19:40 | 41.14485 | 10.42601 | 34158 ft | 507 kts | 69° |
| 2026-04-30 19:41 | 41.16506 | 10.51551 | 34157 ft | 506 kts | 69° |
| 2026-04-30 19:41 | 41.18520 | 10.60511 | 34157 ft | 507 kts | 69° |
| 2026-04-30 19:42 | 41.20538 | 10.69541 | 34155 ft | 507 kts | 69° |
| 2026-04-30 19:42 | 41.22513 | 10.78465 | 34155 ft | 507 kts | 69° |
| 2026-04-30 19:43 | 41.24497 | 10.87460 | 34149 ft | 507 kts | 69° |
| 2026-04-30 19:44 | 41.27457 | 11.00904 | 34153 ft | 503 kts | 69° |
| 2026-04-30 19:44 | 41.29421 | 11.09825 | 34150 ft | 502 kts | 69° |
| 2026-04-30 19:45 | 41.31372 | 11.18735 | 34147 ft | 502 kts | 69° |
| 2026-04-30 19:45 | 41.33321 | 11.27662 | 34147 ft | 502 kts | 69° |
| 2026-04-30 19:46 | 41.35257 | 11.36595 | 34140 ft | 503 kts | 69° |
| 2026-04-30 19:46 | 41.37183 | 11.45565 | 34145 ft | 504 kts | 69° |
| 2026-04-30 19:47 | 41.39095 | 11.54543 | 34145 ft | 504 kts | 69° |
| 2026-04-30 19:47 | 41.41006 | 11.63508 | 34133 ft | 502 kts | 69° |
| 2026-04-30 19:48 | 41.42917 | 11.72443 | 34129 ft | 501 kts | 69° |
| 2026-04-30 19:48 | 41.44821 | 11.81377 | 34137 ft | 502 kts | 69° |
| 2026-04-30 19:49 | 41.46712 | 11.90330 | 34133 ft | 502 kts | 69° |
| 2026-04-30 19:49 | 41.49535 | 12.03782 | 34128 ft | 502 kts | 69° |
| 2026-04-30 19:50 | 41.51414 | 12.12768 | 34128 ft | 503 kts | 69° |
| 2026-04-30 19:50 | 41.53289 | 12.21766 | 34133 ft | 503 kts | 69° |
| 2026-04-30 19:51 | 41.55130 | 12.30690 | 34128 ft | 499 kts | 69° |
| 2026-04-30 19:51 | 41.56963 | 12.39604 | 34138 ft | 497 kts | 69° |
| 2026-04-30 19:52 | 41.58793 | 12.48510 | 34142 ft | 497 kts | 69° |
| 2026-04-30 19:52 | 41.60609 | 12.57422 | 34142 ft | 497 kts | 69° |
| 2026-04-30 19:53 | 41.62430 | 12.66334 | 34138 ft | 497 kts | 69° |
| 2026-04-30 19:53 | 41.64239 | 12.75237 | 34144 ft | 497 kts | 70° |
| 2026-04-30 19:54 | 41.66071 | 12.84332 | 34138 ft | 497 kts | 70° |
| 2026-04-30 19:54 | 41.67833 | 12.93125 | 34167 ft | 497 kts | 70° |
| 2026-04-30 19:55 | 41.69608 | 13.02033 | 34168 ft | 495 kts | 70° |
| 2026-04-30 19:55 | 41.71382 | 13.10945 | 34190 ft | 495 kts | 70° |
| 2026-04-30 19:56 | 41.73160 | 13.19868 | 34185 ft | 496 kts | 70° |
| 2026-04-30 19:56 | 41.74928 | 13.28810 | 34200 ft | 497 kts | 70° |
| 2026-04-30 19:57 | 41.76676 | 13.37760 | 34227 ft | 497 kts | 70° |
| 2026-04-30 19:57 | 41.78424 | 13.46713 | 34224 ft | 497 kts | 70° |
| 2026-04-30 19:58 | 41.80170 | 13.55676 | 34220 ft | 497 kts | 70° |
| 2026-04-30 19:58 | 41.81904 | 13.64632 | 34244 ft | 495 kts | 70° |
| 2026-04-30 19:59 | 41.83623 | 13.73549 | 34252 ft | 494 kts | 70° |
| 2026-04-30 20:00 | 41.86193 | 13.86942 | 34296 ft | 494 kts | 70° |
| 2026-04-30 20:00 | 41.87903 | 13.95879 | 34272 ft | 495 kts | 70° |
| 2026-04-30 20:01 | 41.90435 | 14.09249 | 34267 ft | 495 kts | 70° |
| 2026-04-30 20:01 | 41.92114 | 14.18211 | 34268 ft | 495 kts | 70° |
| 2026-04-30 20:02 | 41.94641 | 14.31668 | 34268 ft | 496 kts | 70° |
| 2026-04-30 20:03 | 41.97160 | 14.45137 | 34255 ft | 496 kts | 70° |
| 2026-04-30 20:03 | 41.98817 | 14.54135 | 34245 ft | 496 kts | 71° |
| 2026-04-30 20:04 | 42.00468 | 14.63141 | 34244 ft | 496 kts | 71° |
| 2026-04-30 20:05 | 42.02944 | 14.76642 | 34237 ft | 496 kts | 71° |
| 2026-04-30 20:05 | 42.05410 | 14.90166 | 34241 ft | 496 kts | 71° |
| 2026-04-30 20:06 | 42.07031 | 14.99196 | 34227 ft | 497 kts | 71° |
| 2026-04-30 20:06 | 42.08654 | 15.08247 | 34224 ft | 497 kts | 71° |
| 2026-04-30 20:07 | 42.10283 | 15.17291 | 34225 ft | 497 kts | 71° |
| 2026-04-30 20:08 | 42.12697 | 15.30892 | 34235 ft | 498 kts | 71° |
| 2026-04-30 20:08 | 42.14282 | 15.39900 | 34220 ft | 499 kts | 71° |
| 2026-04-30 20:09 | 42.15891 | 15.49035 | 34224 ft | 499 kts | 71° |
| 2026-04-30 20:09 | 42.18281 | 15.62704 | 34219 ft | 499 kts | 71° |
| 2026-04-30 20:10 | 42.20654 | 15.76394 | 34221 ft | 500 kts | 72° |
| 2026-04-30 20:11 | 42.23014 | 15.90111 | 34221 ft | 501 kts | 72° |
| 2026-04-30 20:11 | 42.24580 | 15.99274 | 34223 ft | 501 kts | 72° |
| 2026-04-30 20:12 | 42.26359 | 16.13212 | 34213 ft | 510 kts | 87° |
| 2026-04-30 20:13 | 42.25600 | 16.22790 | 34217 ft | 514 kts | 95° |
| 2026-04-30 20:13 | 42.24682 | 16.32370 | 34216 ft | 514 kts | 95° |
| 2026-04-30 20:14 | 42.23935 | 16.40323 | 34213 ft | 514 kts | 95° |
| 2026-04-30 20:14 | 42.23020 | 16.49899 | 34246 ft | 515 kts | 95° |
| 2026-04-30 20:15 | 42.22081 | 16.59467 | 34215 ft | 514 kts | 95° |
| 2026-04-30 20:15 | 42.21131 | 16.69020 | 34209 ft | 514 kts | 95° |
| 2026-04-30 20:16 | 42.20183 | 16.78596 | 34207 ft | 515 kts | 95° |
| 2026-04-30 20:16 | 42.19224 | 16.88161 | 34207 ft | 515 kts | 96° |
| 2026-04-30 20:17 | 42.18271 | 16.97559 | 34204 ft | 515 kts | 96° |
| 2026-04-30 20:17 | 42.17281 | 17.07280 | 34216 ft | 516 kts | 96° |
| 2026-04-30 20:18 | 42.16291 | 17.16885 | 34201 ft | 516 kts | 96° |
| 2026-04-30 20:18 | 42.15302 | 17.26375 | 34195 ft | 516 kts | 96° |
| 2026-04-30 20:19 | 42.14298 | 17.35900 | 34193 ft | 516 kts | 96° |
| 2026-04-30 20:19 | 42.13282 | 17.45543 | 34189 ft | 516 kts | 96° |
| 2026-04-30 20:20 | 42.12268 | 17.55093 | 34194 ft | 515 kts | 96° |
| 2026-04-30 20:20 | 42.11252 | 17.64661 | 34184 ft | 515 kts | 96° |
| 2026-04-30 20:21 | 42.10221 | 17.74216 | 34188 ft | 515 kts | 96° |
| 2026-04-30 20:21 | 42.09170 | 17.83767 | 34054 ft | 517 kts | 97° |
| 2026-04-30 20:21 | 42.08643 | 17.88539 | 33773 ft | 516 kts | 97° |
| 2026-04-30 20:22 | 42.08117 | 17.93309 | 33504 ft | 515 kts | 97° |
| 2026-04-30 20:22 | 42.07592 | 17.98081 | 33238 ft | 515 kts | 97° |
| 2026-04-30 20:22 | 42.07068 | 18.02845 | 32975 ft | 515 kts | 97° |
| 2026-04-30 20:22 | 42.06540 | 18.07609 | 32713 ft | 515 kts | 97° |
| 2026-04-30 20:23 | 42.06009 | 18.12369 | 32454 ft | 514 kts | 97° |
| 2026-04-30 20:23 | 42.05473 | 18.17129 | 31919 ft | 516 kts | 97° |
| 2026-04-30 20:23 | 42.04929 | 18.21930 | 30998 ft | 521 kts | 97° |
| 2026-04-30 20:23 | 42.04384 | 18.26715 | 30573 ft | 515 kts | 97° |
| 2026-04-30 20:24 | 42.03844 | 18.31470 | 29883 ft | 514 kts | 97° |
| 2026-04-30 20:24 | 42.03311 | 18.36145 | 29304 ft | 509 kts | 97° |
| 2026-04-30 20:24 | 42.02775 | 18.40836 | 28684 ft | 506 kts | 97° |
| 2026-04-30 20:24 | 42.02243 | 18.45479 | 28237 ft | 499 kts | 97° |
| 2026-04-30 20:25 | 42.00846 | 18.54523 | 27101 ft | 489 kts | 108° |
| 2026-04-30 20:25 | 41.99608 | 18.58768 | 26561 ft | 484 kts | 112° |
| 2026-04-30 20:26 | 41.97105 | 18.67061 | 25553 ft | 473 kts | 111° |
| 2026-04-30 20:26 | 41.94686 | 18.75098 | 24499 ft | 465 kts | 111° |
| 2026-04-30 20:26 | 41.93458 | 18.79164 | 24037 ft | 458 kts | 111° |
| 2026-04-30 20:27 | 41.91079 | 18.87010 | 23067 ft | 446 kts | 111° |
| 2026-04-30 20:27 | 41.88772 | 18.94608 | 22193 ft | 434 kts | 111° |
| 2026-04-30 20:28 | 41.86518 | 19.02024 | 21332 ft | 425 kts | 111° |
| 2026-04-30 20:28 | 41.84329 | 19.09221 | 20465 ft | 418 kts | 111° |
| 2026-04-30 20:29 | 41.82121 | 19.16445 | 19571 ft | 411 kts | 111° |
| 2026-04-30 20:30 | 41.78882 | 19.26951 | 18174 ft | 402 kts | 111° |
| 2026-04-30 20:30 | 41.74508 | 19.36273 | 16777 ft | 390 kts | 125° |
| 2026-04-30 20:31 | 41.69693 | 19.44298 | 15056 ft | 355 kts | 130° |
| 2026-04-30 20:32 | 41.64997 | 19.51529 | 12785 ft | 331 kts | 120° |
| 2026-04-30 20:32 | 41.62551 | 19.56554 | 11249 ft | 320 kts | 135° |
| 2026-04-30 20:33 | 41.60661 | 19.58028 | 10503 ft | 317 kts | 163° |
| 2026-04-30 20:33 | 41.56346 | 19.58334 | 8947 ft | 309 kts | 193° |
| 2026-04-30 20:33 | 41.54367 | 19.57341 | 8315 ft | 300 kts | 213° |
| 2026-04-30 20:34 | 41.51787 | 19.53307 | 7807 ft | 282 kts | 252° |
| 2026-04-30 20:34 | 41.51100 | 19.48303 | 7321 ft | 274 kts | 266° |
| 2026-04-30 20:35 | 41.50929 | 19.45788 | 7061 ft | 270 kts | 268° |
| 2026-04-30 20:35 | 41.50777 | 19.43310 | 6805 ft | 266 kts | 270° |
| 2026-04-30 20:35 | 41.51411 | 19.38726 | 6310 ft | 242 kts | 304° |
| 2026-04-30 20:36 | 41.52323 | 19.36912 | 6046 ft | 229 kts | 320° |
| 2026-04-30 20:36 | 41.53489 | 19.35555 | 5805 ft | 217 kts | 331° |
| 2026-04-30 20:36 | 41.56214 | 19.34251 | 5307 ft | 202 kts | 359° |
| 2026-04-30 20:37 | 41.57604 | 19.34282 | 5040 ft | 200 kts | 11° |
| 2026-04-30 20:37 | 41.58923 | 19.34724 | 4789 ft | 197 kts | 24° |
| 2026-04-30 20:37 | 41.60161 | 19.35573 | 4535 ft | 196 kts | 37° |
| 2026-04-30 20:37 | 41.61198 | 19.36752 | 4363 ft | 208 kts | 48° |
| 2026-04-30 20:38 | 41.62087 | 19.38391 | 4245 ft | 226 kts | 60° |
| 2026-04-30 20:38 | 41.62657 | 19.40369 | 4106 ft | 231 kts | 73° |
| 2026-04-30 20:38 | 41.62938 | 19.42485 | 3973 ft | 231 kts | 79° |
| 2026-04-30 20:39 | 41.63282 | 19.46786 | 3777 ft | 236 kts | 83° |
| 2026-04-30 20:39 | 41.63443 | 19.49004 | 3909 ft | 245 kts | 83° |
| 2026-04-30 20:39 | 41.63605 | 19.51281 | 3999 ft | 247 kts | 83° |
| 2026-04-30 20:40 | 41.63925 | 19.55833 | 4019 ft | 246 kts | 83° |
| 2026-04-30 20:40 | 41.64086 | 19.58110 | 4024 ft | 247 kts | 83° |
| 2026-04-30 20:40 | 41.64243 | 19.60338 | 4018 ft | 232 kts | 83° |
| 2026-04-30 20:41 | 41.64534 | 19.64456 | 4025 ft | 221 kts | 83° |
| 2026-04-30 20:41 | 41.64644 | 19.66504 | 4022 ft | 222 kts | 92° |
| 2026-04-30 20:41 | 41.64062 | 19.68372 | 4035 ft | 222 kts | 131° |
| 2026-04-30 20:41 | 41.62694 | 19.69263 | 4010 ft | 226 kts | 166° |
| 2026-04-30 20:42 | 41.61125 | 19.69478 | 3778 ft | 226 kts | 171° |
| 2026-04-30 20:42 | 41.59564 | 19.69652 | 3495 ft | 225 kts | 169° |
| 2026-04-30 20:42 | 41.56468 | 19.70057 | 2895 ft | 223 kts | 169° |
| 2026-04-30 20:43 | 41.54957 | 19.70258 | 2619 ft | 218 kts | 168° |
| 2026-04-30 20:43 | 41.53509 | 19.70448 | 2299 ft | 201 kts | 169° |
| 2026-04-30 20:43 | 41.52181 | 19.70624 | 2051 ft | 184 kts | 168° |
| 2026-04-30 20:44 | 41.49807 | 19.70943 | 1578 ft | 161 kts | 171° |
| 2026-04-30 20:44 | 41.48703 | 19.71085 | 1374 ft | 158 kts | 171° |
| 2026-04-30 20:44 | 41.46514 | 19.71373 | 956 ft | 161 kts | 172° |
| 2026-04-30 20:45 | 41.44338 | 19.71668 | 536 ft | 154 kts | 174° |
| 2026-04-30 20:45 | 41.43286 | 19.71810 | 278 ft | 150 kts | 174° |
| 2026-04-30 20:45 | 41.42276 | 19.71950 | 123 ft | 138 kts | 174° |
| 2026-04-30 20:46 | 41.40707 | 19.72151 | 134 ft | 16 kts | 199° |
| 2026-04-30 20:46 | 41.40667 | 19.72012 | 132 ft | 18 kts | 258° |
| 2026-04-30 20:47 | 41.40712 | 19.71767 | 132 ft | 15 kts | 352° |
| 2026-04-30 20:47 | 41.40824 | 19.71748 | 131 ft | 17 kts | 350° |
| 2026-04-30 20:48 | 41.41074 | 19.71698 | 127 ft | 20 kts | 354° |
| 2026-04-30 20:48 | 41.41216 | 19.71679 | 127 ft | 21 kts | 354° |
| 2026-04-30 20:48 | 41.41366 | 19.71659 | 127 ft | 23 kts | 354° |
| 2026-04-30 20:48 | 41.41527 | 19.71638 | 125 ft | 24 kts | 354° |
| 2026-04-30 20:49 | 41.41696 | 19.71615 | 121 ft | 25 kts | 354° |
| 2026-04-30 20:49 | 41.41841 | 19.71595 | 123 ft | 9 kts | 354° |
| 2026-04-30 20:49 | 41.41892 | 19.71588 | 124 ft | 8 kts | 354° |
| 2026-04-30 20:50 | 41.41911 | 19.71540 | 122 ft | 1 kts | 265° |
| 2026-04-30 20:50 | 41.41910 | 19.71525 | 123 ft | 2 kts | 265° |
| 2026-04-30 20:50 | 41.41910 | 19.71524 | 123 ft | 0 kts | 265° |